createdAt,value
2019-05-25T00:01:33.464Z,3.90
2019-05-25T00:04:01.593Z,4.20
2019-05-25T00:06:29.906Z,4.17
2019-05-25T00:08:58.187Z,4.47
2019-05-25T00:11:26.500Z,3.77
2019-05-25T00:13:54.787Z,3.97
2019-05-25T00:16:23.095Z,3.77
2019-05-25T00:18:51.232Z,4.00
2019-05-25T00:21:19.344Z,4.43
2019-05-25T00:23:47.446Z,4.17
2019-05-25T00:26:15.651Z,4.17
2019-05-25T00:28:43.828Z,4.47
2019-05-25T00:31:12.158Z,4.17
2019-05-25T00:33:40.253Z,4.70
2019-05-25T00:36:08.577Z,4.53
2019-05-25T00:38:36.688Z,4.97
2019-05-25T00:41:04.906Z,5.03
2019-05-25T00:43:33.008Z,4.77
2019-05-25T00:46:01.233Z,4.80
2019-05-25T00:48:29.395Z,4.73
2019-05-25T00:50:57.437Z,4.43
2019-05-25T00:53:25.736Z,4.57
2019-05-25T00:55:53.856Z,4.87
2019-05-25T00:58:21.924Z,4.87
2019-05-25T01:00:50.090Z,4.83
2019-05-25T01:03:18.221Z,4.93
2019-05-25T01:05:46.354Z,5.57
2019-05-25T01:08:14.715Z,5.60
2019-05-25T01:10:42.789Z,5.50
2019-05-25T01:13:10.904Z,5.37
2019-05-25T01:15:39.028Z,5.37
2019-05-25T01:18:07.216Z,5.80
2019-05-25T01:20:35.483Z,5.63
2019-05-25T01:23:03.581Z,6.10
2019-05-25T01:25:31.790Z,6.13
2019-05-25T01:27:59.931Z,5.83
2019-05-25T01:30:28.469Z,6.07
2019-05-25T01:32:56.608Z,5.93
2019-05-25T01:35:24.782Z,5.83
2019-05-25T01:37:53.088Z,5.73
2019-05-25T01:40:21.264Z,6.13
2019-05-25T01:42:49.321Z,5.67
2019-05-25T01:45:17.471Z,5.77
2019-05-25T01:47:45.510Z,5.53
2019-05-25T01:50:14.052Z,5.37
2019-05-25T01:52:42.163Z,5.50
2019-05-25T01:55:11.604Z,5.37
2019-05-25T01:57:39.860Z,6.07
2019-05-25T02:00:09.190Z,5.60
2019-05-25T02:02:37.230Z,5.27
2019-05-25T02:05:06.637Z,5.27
2019-05-25T02:07:34.911Z,5.57
2019-05-25T02:10:04.732Z,5.60
2019-05-25T02:12:32.859Z,5.13
2019-05-25T02:15:01.001Z,5.63
2019-05-25T02:17:29.091Z,5.07
2019-05-25T02:19:57.215Z,5.13
2019-05-25T02:22:25.744Z,5.70
2019-05-25T02:24:53.873Z,5.30
2019-05-25T02:27:22.113Z,5.33
2019-05-25T02:29:50.203Z,5.90
2019-05-25T02:32:18.412Z,5.90
2019-05-25T02:34:46.582Z,5.73
2019-05-25T02:37:14.607Z,5.80
2019-05-25T02:39:42.800Z,6.37
2019-05-25T02:42:11.114Z,6.17
2019-05-25T02:44:39.150Z,6.20
2019-05-25T02:47:07.306Z,6.23
2019-05-25T02:49:35.358Z,6.13
2019-05-25T02:52:03.591Z,6.20
2019-05-25T02:54:32.300Z,6.43
2019-05-25T02:57:00.485Z,6.33
2019-05-25T02:59:28.580Z,6.87
2019-05-25T03:01:57.090Z,6.23
2019-05-25T03:04:25.236Z,6.90
2019-05-25T03:06:53.745Z,6.20
2019-05-25T03:09:24.437Z,6.53
2019-05-25T03:11:53.529Z,6.10
2019-05-25T03:14:21.826Z,5.90
2019-05-25T03:16:49.868Z,6.47
2019-05-25T03:19:18.162Z,6.10
2019-05-25T03:21:46.392Z,6.37
2019-05-25T03:24:14.532Z,6.63
2019-05-25T03:26:42.797Z,6.03
2019-05-25T03:29:10.973Z,6.37
2019-05-25T03:31:39.031Z,6.23
2019-05-25T03:34:07.399Z,6.23
2019-05-25T03:36:35.480Z,6.67
2019-05-25T03:39:06.362Z,6.23
2019-05-25T03:41:34.982Z,6.13
2019-05-25T03:44:03.347Z,6.57
2019-05-25T03:46:31.399Z,6.37
2019-05-25T03:48:59.690Z,6.57
2019-05-25T03:51:27.803Z,6.87
2019-05-25T03:53:55.868Z,6.73
2019-05-25T03:56:24.062Z,6.97
2019-05-25T03:58:52.075Z,6.83
2019-05-25T04:01:20.210Z,7.03
2019-05-25T04:03:48.400Z,7.30
2019-05-25T04:06:16.480Z,6.77
2019-05-25T04:08:44.769Z,6.40
2019-05-25T04:11:12.886Z,6.33
2019-05-25T04:13:40.958Z,6.80
2019-05-25T04:16:09.130Z,6.60
2019-05-25T04:18:37.189Z,6.07
2019-05-25T04:21:05.288Z,5.83
2019-05-25T04:23:33.502Z,6.43
2019-05-25T04:26:01.543Z,6.40
2019-05-25T04:28:30.689Z,6.73
2019-05-25T04:30:58.759Z,6.80
2019-05-25T04:33:26.960Z,6.90
2019-05-25T04:35:55.034Z,6.60
2019-05-25T04:38:23.079Z,6.40
2019-05-25T04:40:51.148Z,6.97
2019-05-25T04:43:19.515Z,6.57
2019-05-25T04:45:47.692Z,6.60
2019-05-25T04:48:15.999Z,6.20
2019-05-25T04:50:44.075Z,7.13
2019-05-25T04:53:12.278Z,6.80
2019-05-25T04:55:40.575Z,6.23
2019-05-25T04:58:08.682Z,6.50
2019-05-25T05:00:36.771Z,6.10
2019-05-25T05:05:52.906Z,6.27
2019-05-25T05:08:21.339Z,6.80
2019-05-25T05:11:14.642Z,6.47
2019-05-25T05:13:44.426Z,6.10
2019-05-25T05:16:12.628Z,6.27
2019-05-25T05:18:41.419Z,6.53
2019-05-25T05:21:10.463Z,5.83
2019-05-25T05:23:38.580Z,5.53
2019-05-25T05:26:06.892Z,5.40
2019-05-25T05:28:35.149Z,6.10
2019-05-25T05:31:03.346Z,5.93
2019-05-25T05:33:31.568Z,5.37
2019-05-25T05:36:01.404Z,5.53
2019-05-25T05:38:29.884Z,5.63
2019-05-25T05:41:00.112Z,5.90
2019-05-25T05:43:31.101Z,5.57
2019-05-25T05:46:01.267Z,6.03
2019-05-25T05:48:32.536Z,5.57
2019-05-25T05:51:02.503Z,5.93
2019-05-25T05:53:35.176Z,5.50
2019-05-25T05:56:03.563Z,6.20
2019-05-25T05:58:31.823Z,5.50
2019-05-25T06:00:59.908Z,5.20
2019-05-25T06:03:28.272Z,5.47
2019-05-25T06:05:56.355Z,5.17
2019-05-25T06:08:24.411Z,5.27
2019-05-25T06:10:52.488Z,5.77
2019-05-25T06:13:20.601Z,6.00
2019-05-25T06:15:48.634Z,5.93
2019-05-25T06:18:16.841Z,5.73
2019-05-25T06:20:44.885Z,5.73
2019-05-25T06:23:13.012Z,5.20
2019-05-25T06:25:41.303Z,5.57
2019-05-25T06:28:09.432Z,5.30
2019-05-25T06:30:37.587Z,5.23
2019-05-25T06:33:05.734Z,5.07
2019-05-25T06:35:33.803Z,4.83
2019-05-25T06:38:03.092Z,4.57
2019-05-25T06:40:31.388Z,4.77
2019-05-25T06:42:59.408Z,4.43
2019-05-25T06:45:27.606Z,4.63
2019-05-25T06:47:55.801Z,4.07
2019-05-25T06:50:24.111Z,4.07
2019-05-25T06:52:52.210Z,4.97
2019-05-25T06:55:20.284Z,3.80
2019-05-25T06:57:48.480Z,4.40
2019-05-25T07:00:18.539Z,3.60
2019-05-25T07:02:46.787Z,4.10
2019-05-25T07:05:14.911Z,3.57
2019-05-25T07:07:42.990Z,4.77
2019-05-25T07:10:11.405Z,3.37
2019-05-25T07:12:39.482Z,3.10
2019-05-25T07:15:09.530Z,3.50
2019-05-25T07:17:37.613Z,3.23
2019-05-25T07:20:06.029Z,3.47
2019-05-25T07:22:34.196Z,3.17
2019-05-25T07:25:03.264Z,2.93
2019-05-25T07:27:31.615Z,2.50
2019-05-25T07:29:59.787Z,2.80
2019-05-25T07:32:28.255Z,2.57
2019-05-25T07:34:56.313Z,2.87
2019-05-25T07:37:24.540Z,3.00
2019-05-25T07:39:52.726Z,2.73
2019-05-25T07:42:21.173Z,2.83
2019-05-25T07:44:49.358Z,2.80
2019-05-25T07:47:17.406Z,2.80
2019-05-25T07:49:45.454Z,3.10
2019-05-25T07:52:13.615Z,2.40
2019-05-25T07:54:41.870Z,2.40
2019-05-25T07:57:09.870Z,1.80
2019-05-25T07:59:38.293Z,2.37
2019-05-25T08:02:06.661Z,2.23
2019-05-25T08:04:35.031Z,2.53
2019-05-25T08:07:03.309Z,1.90
2019-05-25T08:09:31.558Z,2.10
2019-05-25T08:11:59.931Z,2.33
2019-05-25T08:14:28.140Z,2.13
2019-05-25T08:16:56.348Z,2.30
2019-05-25T08:19:24.578Z,2.10
2019-05-25T08:21:52.708Z,2.00
2019-05-25T08:24:20.793Z,2.57
2019-05-25T08:26:49.098Z,1.97
2019-05-25T08:29:17.259Z,2.50
2019-05-25T08:31:46.339Z,2.30
2019-05-25T08:34:14.438Z,2.37
2019-05-25T08:36:42.709Z,2.77
2019-05-25T08:39:10.752Z,2.80
2019-05-25T08:41:39.038Z,2.60
2019-05-25T08:44:07.158Z,2.50
2019-05-25T08:46:36.058Z,2.40
2019-05-25T08:49:04.305Z,2.83
2019-05-25T08:51:32.579Z,2.83
2019-05-25T08:54:00.734Z,2.20
2019-05-25T08:56:28.763Z,2.60
2019-05-25T08:58:56.839Z,2.30
2019-05-25T09:01:24.928Z,2.20
2019-05-25T09:03:53.055Z,2.27
2019-05-25T09:06:21.365Z,3.23
2019-05-25T09:08:49.432Z,2.23
2019-05-25T09:11:17.480Z,2.60
2019-05-25T09:13:45.596Z,18.07
2019-05-25T09:16:13.674Z,7.00
2019-05-25T09:18:41.824Z,2.47
2019-05-25T09:21:10.122Z,1.90
2019-05-25T09:23:38.374Z,1.90
2019-05-25T09:26:06.437Z,13.43
2019-05-25T09:28:34.565Z,1.90
2019-05-25T09:31:02.710Z,4.43
2019-05-25T09:33:31.367Z,4.03
2019-05-25T09:35:59.485Z,1.90
2019-05-25T09:38:27.881Z,15.37
2019-05-25T09:40:55.985Z,2.30
2019-05-25T09:43:24.022Z,3.87
2019-05-25T09:45:52.189Z,1.90
2019-05-25T09:48:20.389Z,1.70
2019-05-25T09:50:48.484Z,1.97
2019-05-25T09:53:17.362Z,1.93
2019-05-25T09:55:45.534Z,2.07
2019-05-25T09:58:13.656Z,1.60
2019-05-25T10:00:41.796Z,1.60
2019-05-25T10:03:10.051Z,1.90
2019-05-25T10:05:38.123Z,1.73
2019-05-25T10:08:06.287Z,1.90
2019-05-25T10:10:34.391Z,2.20
2019-05-25T10:13:02.581Z,1.87
2019-05-25T10:15:30.593Z,2.03
2019-05-25T10:17:58.626Z,2.10
2019-05-25T10:20:26.817Z,2.80
2019-05-25T10:22:55.045Z,7.53
2019-05-25T10:25:23.854Z,2.47
2019-05-25T10:27:52.176Z,2.60
2019-05-25T10:30:20.386Z,2.57
2019-05-25T10:32:48.684Z,2.53
2019-05-25T10:35:19.065Z,3.03
2019-05-25T10:37:47.097Z,2.90
2019-05-25T10:40:15.439Z,2.97
2019-05-25T10:42:44.552Z,2.20
2019-05-25T10:45:14.316Z,2.47
2019-05-25T10:47:42.332Z,2.10
2019-05-25T10:50:11.028Z,2.40
2019-05-25T10:52:39.354Z,2.40
2019-05-25T10:55:09.913Z,3.00
2019-05-25T10:57:38.243Z,2.90
2019-05-25T11:00:07.853Z,2.70
2019-05-25T11:02:37.087Z,2.17
2019-05-25T11:05:05.745Z,2.37
2019-05-25T11:07:33.783Z,2.70
2019-05-25T11:10:02.086Z,2.20
2019-05-25T11:12:30.410Z,2.70
2019-05-25T11:14:58.488Z,2.40
2019-05-25T11:17:26.546Z,2.80
2019-05-25T11:19:54.584Z,2.87
2019-05-25T11:22:22.879Z,2.20
2019-05-25T11:24:51.239Z,2.93
2019-05-25T11:27:19.356Z,2.50
2019-05-25T11:29:47.508Z,2.60
2019-05-25T11:32:15.633Z,2.63
2019-05-25T11:34:43.738Z,2.50
2019-05-25T11:37:15.455Z,2.20
2019-05-25T11:39:42.065Z,2.37
2019-05-25T11:42:10.156Z,2.40
2019-05-25T11:44:38.349Z,2.57
2019-05-25T11:47:06.464Z,2.63
2019-05-25T11:49:34.597Z,2.30
2019-05-25T11:52:02.720Z,2.50
2019-05-25T11:54:30.987Z,2.43
2019-05-25T11:56:59.114Z,2.50
2019-05-25T11:59:27.249Z,2.30
2019-05-25T12:01:55.527Z,2.63
2019-05-25T12:04:23.571Z,2.53
2019-05-25T12:06:51.619Z,2.40
2019-05-25T12:09:19.850Z,3.10
2019-05-25T12:11:48.025Z,2.50
2019-05-25T12:14:16.037Z,2.50
2019-05-25T12:16:44.258Z,2.90
2019-05-25T12:19:14.845Z,3.03
2019-05-25T12:21:42.482Z,2.97
2019-05-25T12:24:10.543Z,2.80
2019-05-25T12:26:38.669Z,2.63
2019-05-25T12:29:06.848Z,2.97
2019-05-25T12:31:34.935Z,2.50
2019-05-25T12:34:03.182Z,2.80
2019-05-25T12:36:31.317Z,2.10
2019-05-25T12:38:59.462Z,3.30
2019-05-25T12:41:27.576Z,2.67
2019-05-25T12:43:55.662Z,2.40
2019-05-25T12:46:23.772Z,2.97
2019-05-25T12:48:51.827Z,3.27
2019-05-25T12:51:19.861Z,2.93
2019-05-25T12:53:48.022Z,2.70
2019-05-25T12:56:16.085Z,3.13
2019-05-25T12:58:44.163Z,3.17
2019-05-25T13:01:12.295Z,3.10
2019-05-25T13:03:40.416Z,2.67
2019-05-25T13:06:08.528Z,2.60
2019-05-25T13:08:36.821Z,3.20
2019-05-25T13:11:05.071Z,3.00
2019-05-25T13:13:33.124Z,3.30
2019-05-25T13:16:01.240Z,3.57
2019-05-25T13:18:29.418Z,3.07
2019-05-25T13:20:57.643Z,2.80
2019-05-25T13:23:25.871Z,2.83
2019-05-25T13:25:54.314Z,2.93
2019-05-25T13:28:22.573Z,2.50
2019-05-25T13:30:50.785Z,2.83
2019-05-25T13:33:19.020Z,2.97
2019-05-25T13:35:47.188Z,2.77
2019-05-25T13:38:15.923Z,3.10
2019-05-25T13:40:45.348Z,2.60
2019-05-25T13:43:13.480Z,2.80
2019-05-25T13:45:41.688Z,3.10
2019-05-25T13:48:09.864Z,3.50
2019-05-25T13:50:38.195Z,2.93
2019-05-25T13:53:06.788Z,2.73
2019-05-25T13:55:35.080Z,3.03
2019-05-25T13:58:03.544Z,2.60
2019-05-25T14:00:32.123Z,2.50
2019-05-25T14:03:00.469Z,2.70
2019-05-25T14:05:28.670Z,3.10
2019-05-25T14:07:57.044Z,3.20
2019-05-25T14:10:26.269Z,2.73
2019-05-25T14:12:54.697Z,2.87
2019-05-25T14:15:23.227Z,2.40
2019-05-25T14:17:51.736Z,2.70
2019-05-25T14:20:20.118Z,2.60
2019-05-25T14:22:48.797Z,3.13
2019-05-25T14:25:17.135Z,2.70
2019-05-25T14:27:45.506Z,3.07
2019-05-25T14:30:14.545Z,2.70
2019-05-25T14:32:42.927Z,2.80
2019-05-25T14:35:11.243Z,2.47
2019-05-25T14:37:39.761Z,3.07
2019-05-25T14:40:11.494Z,2.70
2019-05-25T14:42:39.478Z,2.93
2019-05-25T14:45:09.236Z,3.40
2019-05-25T14:47:37.501Z,2.53
2019-05-25T14:50:06.682Z,2.80
2019-05-25T14:52:34.883Z,2.73
2019-05-25T14:55:03.531Z,3.00
2019-05-25T14:57:32.170Z,2.60
2019-05-25T15:00:00.686Z,2.70
2019-05-25T15:02:28.870Z,2.60
2019-05-25T15:04:57.042Z,2.20
2019-05-25T15:07:25.239Z,2.43
2019-05-25T15:09:53.411Z,2.40
2019-05-25T15:12:21.724Z,2.07
2019-05-25T15:14:49.835Z,2.23
2019-05-25T15:17:18.002Z,2.40
2019-05-25T15:19:46.296Z,2.90
2019-05-25T15:22:14.564Z,2.50
2019-05-25T15:24:42.929Z,2.50
2019-05-25T15:27:11.310Z,2.33
2019-05-25T15:29:39.567Z,2.73
2019-05-25T15:32:19.457Z,2.30
2019-05-25T15:34:38.661Z,2.40
2019-05-25T15:37:06.859Z,3.00
2019-05-25T15:39:35.263Z,2.40
2019-05-25T15:42:03.879Z,2.40
2019-05-25T15:44:32.049Z,2.40
2019-05-25T15:47:04.902Z,2.50
2019-05-25T15:49:33.697Z,2.20
2019-05-25T15:52:02.846Z,2.27
2019-05-25T15:55:10.191Z,2.60
2019-05-25T15:57:38.490Z,2.40
2019-05-25T16:00:08.356Z,2.60
2019-05-25T16:02:37.273Z,2.40
2019-05-25T16:05:07.586Z,2.50
2019-05-25T16:07:41.559Z,2.47
2019-05-25T16:10:10.522Z,2.30
2019-05-25T16:12:39.034Z,2.53
2019-05-25T16:15:08.063Z,2.50
2019-05-25T16:17:37.372Z,2.20
2019-05-25T16:20:05.785Z,2.60
2019-05-25T16:22:34.162Z,2.57
2019-05-25T16:25:02.369Z,2.30
2019-05-25T16:27:33.780Z,2.50
2019-05-25T16:30:01.981Z,2.50
2019-05-25T16:32:30.184Z,2.43
2019-05-25T16:34:58.442Z,2.40
2019-05-25T16:37:26.594Z,2.43
2019-05-25T16:39:54.866Z,2.50
2019-05-25T16:42:23.186Z,2.47
2019-05-25T16:44:51.565Z,2.37
2019-05-25T16:47:19.928Z,2.53
2019-05-25T16:49:48.108Z,2.67
2019-05-25T16:52:16.159Z,2.50
2019-05-25T16:54:44.293Z,2.33
2019-05-25T16:57:12.431Z,2.20
2019-05-25T16:59:40.676Z,2.13
2019-05-25T17:02:08.968Z,2.50
2019-05-25T17:04:37.294Z,2.30
2019-05-25T17:07:05.514Z,2.60
2019-05-25T17:09:33.721Z,2.20
2019-05-25T17:12:01.970Z,2.10
2019-05-25T17:14:30.085Z,2.60
2019-05-25T17:16:58.446Z,2.30
2019-05-25T17:19:26.852Z,2.60
2019-05-25T17:21:55.594Z,2.43
2019-05-25T17:24:24.064Z,2.40
2019-05-25T17:26:53.455Z,2.43
2019-05-25T17:29:21.708Z,2.60
2019-05-25T17:31:50.109Z,2.60
2019-05-25T17:34:18.634Z,2.87
2019-05-25T17:36:47.095Z,2.30
2019-05-25T17:39:15.467Z,2.70
2019-05-25T17:41:43.762Z,2.43
2019-05-25T17:44:11.924Z,2.30
2019-05-25T17:46:40.411Z,2.50
2019-05-25T17:49:08.826Z,2.47
2019-05-25T17:51:37.039Z,3.10
2019-05-25T17:54:05.834Z,2.57
2019-05-25T17:56:34.026Z,2.83
2019-05-25T17:59:02.178Z,2.80
2019-05-25T18:01:30.506Z,2.20
2019-05-25T18:04:07.693Z,2.30
2019-05-25T18:06:28.920Z,3.10
2019-05-25T18:08:57.168Z,2.83
2019-05-25T18:11:25.406Z,4.33
2019-05-25T18:13:54.732Z,3.23
2019-05-25T18:16:23.052Z,2.50
2019-05-25T18:18:51.215Z,2.60
2019-05-25T18:21:19.284Z,2.50
2019-05-25T18:23:47.432Z,2.20
2019-05-25T18:26:15.545Z,2.63
2019-05-25T18:28:43.716Z,2.30
2019-05-25T18:31:11.954Z,2.33
2019-05-25T18:33:40.001Z,2.23
2019-05-25T18:36:08.171Z,2.33
2019-05-25T18:38:36.302Z,2.13
2019-05-25T18:41:04.346Z,2.10
2019-05-25T18:43:32.387Z,2.20
2019-05-25T18:46:00.499Z,2.23
2019-05-25T18:48:28.562Z,2.10
2019-05-25T18:50:56.684Z,2.50
2019-05-25T18:53:25.046Z,2.00
2019-05-25T18:55:53.212Z,2.47
2019-05-25T18:58:21.536Z,2.03
2019-05-25T19:00:49.647Z,2.03
2019-05-25T19:03:17.733Z,2.30
2019-05-25T19:05:45.768Z,2.50
2019-05-25T19:08:13.800Z,2.70
2019-05-25T19:10:47.184Z,2.30
2019-05-25T19:13:15.760Z,2.60
2019-05-25T19:15:43.853Z,2.23
2019-05-25T19:18:13.144Z,2.40
2019-05-25T19:20:41.313Z,2.40
2019-05-25T19:23:09.484Z,2.50
2019-05-25T19:25:37.531Z,2.60
2019-05-25T19:28:09.213Z,2.80
2019-05-25T19:30:37.719Z,2.60
2019-05-25T19:33:05.892Z,2.40
2019-05-25T19:35:34.090Z,2.50
2019-05-25T19:38:02.668Z,2.70
2019-05-25T19:40:32.693Z,2.70
2019-05-25T19:43:00.916Z,2.97
2019-05-25T19:45:29.031Z,2.53
2019-05-25T19:47:57.151Z,2.77
2019-05-25T19:50:25.425Z,3.00
2019-05-25T19:52:53.498Z,2.53
2019-05-25T19:55:21.712Z,2.67
2019-05-25T19:57:50.353Z,2.80
2019-05-25T20:00:18.751Z,2.90
2019-05-25T20:02:46.853Z,2.40
2019-05-25T20:05:17.544Z,3.00
2019-05-25T20:07:45.945Z,3.00
2019-05-25T20:10:14.496Z,2.50
2019-05-25T20:12:42.685Z,2.80
2019-05-25T20:15:11.953Z,2.30
2019-05-25T20:17:40.111Z,2.77
2019-05-25T20:20:09.287Z,2.60
2019-05-25T20:22:37.576Z,2.70
2019-05-25T20:25:06.006Z,2.83
2019-05-25T20:27:34.105Z,2.70
2019-05-25T20:30:02.267Z,3.03
2019-05-25T20:32:30.595Z,2.83
2019-05-25T20:34:58.898Z,2.70
2019-05-25T20:37:26.965Z,2.50
2019-05-25T20:39:55.175Z,2.60
2019-05-25T20:42:23.163Z,2.40
2019-05-25T20:44:51.406Z,2.80
2019-05-25T20:47:19.524Z,2.40
2019-05-25T20:49:47.710Z,2.70
2019-05-25T20:52:16.183Z,2.33
2019-05-25T20:54:44.541Z,2.53
2019-05-25T20:57:12.653Z,2.83
2019-05-25T20:59:40.784Z,2.97
2019-05-25T21:02:10.766Z,2.80
2019-05-25T21:04:38.957Z,2.60
2019-05-25T21:07:07.250Z,2.40
2019-05-25T21:09:35.412Z,2.57
2019-05-25T21:12:03.544Z,2.90
2019-05-25T21:14:31.609Z,2.87
2019-05-25T21:16:59.753Z,3.10
2019-05-25T21:19:27.973Z,2.60
2019-05-25T21:21:56.265Z,3.03
2019-05-25T21:24:24.352Z,2.77
2019-05-25T21:26:52.596Z,2.90
2019-05-25T21:29:20.750Z,2.50
2019-05-25T21:31:48.826Z,3.20
2019-05-25T21:34:17.244Z,3.00
2019-05-25T21:36:45.657Z,2.60
2019-05-25T21:39:13.769Z,2.90
2019-05-25T21:41:42.123Z,2.67
2019-05-25T21:44:10.319Z,2.90
2019-05-25T21:46:38.393Z,2.97
2019-05-25T21:49:06.540Z,2.60
2019-05-25T21:51:55.782Z,2.97
2019-05-25T21:54:24.128Z,2.93
2019-05-25T21:56:52.215Z,3.00
2019-05-25T21:59:20.688Z,2.67
2019-05-25T22:01:48.766Z,2.80
2019-05-25T22:04:17.249Z,3.10
2019-05-25T22:06:45.470Z,2.77
2019-05-25T22:09:13.948Z,3.33
2019-05-25T22:11:42.272Z,3.10
2019-05-25T22:14:10.671Z,3.50
2019-05-25T22:16:38.907Z,3.30
2019-05-25T22:19:07.095Z,2.93
2019-05-25T22:21:35.437Z,3.20
2019-05-25T22:24:03.587Z,3.30
2019-05-25T22:26:31.871Z,3.47
2019-05-25T22:29:00.366Z,3.27
2019-05-25T22:31:28.404Z,3.40
2019-05-25T22:33:59.279Z,3.20
2019-05-25T22:36:39.224Z,3.60
2019-05-25T22:38:56.971Z,3.83
2019-05-25T22:41:25.492Z,3.37
2019-05-25T22:43:53.902Z,3.00
2019-05-25T22:46:22.170Z,3.07
2019-05-25T22:48:50.379Z,3.10
2019-05-25T22:51:18.498Z,3.40
2019-05-25T22:53:46.533Z,3.80
2019-05-25T22:56:14.593Z,4.00
2019-05-25T22:58:42.792Z,3.80
2019-05-25T23:01:10.925Z,3.90
2019-05-25T23:03:39.152Z,3.43
2019-05-25T23:06:07.548Z,3.77
2019-05-25T23:08:35.703Z,3.60
2019-05-25T23:11:03.853Z,3.63
2019-05-25T23:13:32.051Z,3.83
2019-05-25T23:16:00.181Z,4.03
2019-05-25T23:18:28.343Z,4.03
2019-05-25T23:20:57.682Z,3.87
2019-05-25T23:23:25.995Z,3.77
2019-05-25T23:25:54.191Z,4.17
2019-05-25T23:28:22.262Z,3.57
2019-05-25T23:30:50.444Z,4.43
2019-05-25T23:33:18.664Z,3.83
2019-05-25T23:35:46.984Z,3.97
2019-05-25T23:38:15.211Z,3.90
2019-05-25T23:40:43.402Z,3.70
2019-05-25T23:43:11.571Z,3.60
2019-05-25T23:45:39.945Z,3.90
2019-05-25T23:48:08.109Z,3.77
2019-05-25T23:50:36.442Z,3.70
2019-05-25T23:53:04.881Z,4.10
2019-05-25T23:55:33.066Z,4.07
2019-05-25T23:58:01.334Z,4.00
